sensor_id;sensor_type;location;lat;lon;timestamp;P1;durP1;ratioP1;P2;durP2;ratioP2
78718;SDS011;68046;53.334;9.538;2023-07-20T00:02:11;5.45;;;2.75;;
78718;SDS011;68046;53.334;9.538;2023-07-20T00:04:57;4.55;;;2.72;;
78718;SDS011;68046;53.334;9.538;2023-07-20T00:07:27;4.70;;;2.85;;
78718;SDS011;68046;53.334;9.538;2023-07-20T00:09:58;4.53;;;3.13;;
78718;SDS011;68046;53.334;9.538;2023-07-20T00:12:28;4.40;;;2.83;;
78718;SDS011;68046;53.334;9.538;2023-07-20T00:14:58;5.55;;;2.67;;
78718;SDS011;68046;53.334;9.538;2023-07-20T00:17:28;4.32;;;3.05;;
78718;SDS011;68046;53.334;9.538;2023-07-20T00:20:00;6.15;;;3.60;;
78718;SDS011;68046;53.334;9.538;2023-07-20T00:22:31;4.70;;;3.17;;
78718;SDS011;68046;53.334;9.538;2023-07-20T00:25:02;8.48;;;3.25;;
78718;SDS011;68046;53.334;9.538;2023-07-20T00:30:02;4.40;;;3.10;;
78718;SDS011;68046;53.334;9.538;2023-07-20T00:32:33;6.20;;;3.30;;
78718;SDS011;68046;53.334;9.538;2023-07-20T00:35:06;5.80;;;3.90;;
78718;SDS011;68046;53.334;9.538;2023-07-20T00:37:36;4.82;;;3.28;;
78718;SDS011;68046;53.334;9.538;2023-07-20T00:40:06;5.28;;;3.50;;
78718;SDS011;68046;53.334;9.538;2023-07-20T00:45:06;6.55;;;3.92;;
78718;SDS011;68046;53.334;9.538;2023-07-20T00:50:09;6.70;;;3.97;;
78718;SDS011;68046;53.334;9.538;2023-07-20T00:52:39;9.75;;;4.20;;
78718;SDS011;68046;53.334;9.538;2023-07-20T00:57:41;9.65;;;4.03;;
78718;SDS011;68046;53.334;9.538;2023-07-20T01:00:12;9.55;;;4.35;;
78718;SDS011;68046;53.334;9.538;2023-07-20T01:02:43;6.20;;;4.13;;
78718;SDS011;68046;53.334;9.538;2023-07-20T01:11:35;7.93;;;4.47;;
78718;SDS011;68046;53.334;9.538;2023-07-20T01:14:17;8.25;;;4.35;;
78718;SDS011;68046;53.334;9.538;2023-07-20T01:16:47;8.70;;;5.07;;
78718;SDS011;68046;53.334;9.538;2023-07-20T01:19:20;10.23;;;5.25;;
78718;SDS011;68046;53.334;9.538;2023-07-20T01:21:52;8.50;;;4.43;;
78718;SDS011;68046;53.334;9.538;2023-07-20T01:24:30;7.18;;;3.83;;
78718;SDS011;68046;53.334;9.538;2023-07-20T01:27:18;6.97;;;4.05;;
78718;SDS011;68046;53.334;9.538;2023-07-20T01:29:59;8.18;;;4.43;;
78718;SDS011;68046;53.334;9.538;2023-07-20T01:32:40;5.78;;;3.80;;
78718;SDS011;68046;53.334;9.538;2023-07-20T01:35:12;8.23;;;3.80;;
78718;SDS011;68046;53.334;9.538;2023-07-20T01:37:44;8.40;;;3.72;;
78718;SDS011;68046;53.334;9.538;2023-07-20T01:40:14;8.70;;;4.18;;
78718;SDS011;68046;53.334;9.538;2023-07-20T01:42:44;9.02;;;4.28;;
78718;SDS011;68046;53.334;9.538;2023-07-20T01:45:15;10.15;;;5.18;;
78718;SDS011;68046;53.334;9.538;2023-07-20T01:47:47;7.85;;;4.88;;
78718;SDS011;68046;53.334;9.538;2023-07-20T01:50:17;6.97;;;4.65;;
78718;SDS011;68046;53.334;9.538;2023-07-20T01:52:47;7.22;;;4.53;;
78718;SDS011;68046;53.334;9.538;2023-07-20T01:55:16;7.68;;;4.78;;
78718;SDS011;68046;53.334;9.538;2023-07-20T01:57:46;7.25;;;4.80;;
78718;SDS011;68046;53.334;9.538;2023-07-20T02:00:16;7.95;;;4.82;;
78718;SDS011;68046;53.334;9.538;2023-07-20T02:02:53;6.25;;;4.22;;
78718;SDS011;68046;53.334;9.538;2023-07-20T02:05:22;8.32;;;4.60;;
78718;SDS011;68046;53.334;9.538;2023-07-20T02:07:53;8.65;;;4.68;;
78718;SDS011;68046;53.334;9.538;2023-07-20T02:10:22;8.68;;;4.50;;
78718;SDS011;68046;53.334;9.538;2023-07-20T02:12:52;7.22;;;4.00;;
78718;SDS011;68046;53.334;9.538;2023-07-20T02:15:22;6.15;;;3.47;;
78718;SDS011;68046;53.334;9.538;2023-07-20T02:17:54;7.10;;;4.25;;
78718;SDS011;68046;53.334;9.538;2023-07-20T02:20:24;6.90;;;3.60;;
78718;SDS011;68046;53.334;9.538;2023-07-20T02:22:54;7.35;;;3.60;;
78718;SDS011;68046;53.334;9.538;2023-07-20T02:25:24;5.40;;;3.33;;
78718;SDS011;68046;53.334;9.538;2023-07-20T02:27:55;4.97;;;3.40;;
78718;SDS011;68046;53.334;9.538;2023-07-20T02:30:25;7.47;;;4.00;;
78718;SDS011;68046;53.334;9.538;2023-07-20T02:35:28;6.28;;;3.80;;
78718;SDS011;68046;53.334;9.538;2023-07-20T02:37:58;6.07;;;4.10;;
78718;SDS011;68046;53.334;9.538;2023-07-20T02:40:27;8.40;;;3.95;;
78718;SDS011;68046;53.334;9.538;2023-07-20T02:42:57;7.53;;;4.57;;
78718;SDS011;68046;53.334;9.538;2023-07-20T02:45:27;6.95;;;4.43;;
78718;SDS011;68046;53.334;9.538;2023-07-20T02:48:00;7.78;;;4.18;;
78718;SDS011;68046;53.334;9.538;2023-07-20T02:50:30;10.40;;;4.13;;
78718;SDS011;68046;53.334;9.538;2023-07-20T02:52:59;7.13;;;4.40;;
78718;SDS011;68046;53.334;9.538;2023-07-20T02:55:29;7.32;;;4.72;;
78718;SDS011;68046;53.334;9.538;2023-07-20T02:57:59;7.55;;;4.20;;
78718;SDS011;68046;53.334;9.538;2023-07-20T03:00:29;6.22;;;4.25;;
78718;SDS011;68046;53.334;9.538;2023-07-20T03:03:01;9.60;;;4.85;;
78718;SDS011;68046;53.334;9.538;2023-07-20T03:05:36;7.40;;;4.50;;
78718;SDS011;68046;53.334;9.538;2023-07-20T03:08:07;8.75;;;4.68;;
78718;SDS011;68046;53.334;9.538;2023-07-20T03:10:40;7.45;;;4.75;;
78718;SDS011;68046;53.334;9.538;2023-07-20T03:13:10;8.13;;;4.40;;
78718;SDS011;68046;53.334;9.538;2023-07-20T03:15:40;7.03;;;4.40;;
78718;SDS011;68046;53.334;9.538;2023-07-20T03:18:13;6.10;;;3.90;;
78718;SDS011;68046;53.334;9.538;2023-07-20T03:20:43;7.55;;;4.60;;
78718;SDS011;68046;53.334;9.538;2023-07-20T03:23:12;6.10;;;4.40;;
78718;SDS011;68046;53.334;9.538;2023-07-20T03:28:12;7.43;;;4.30;;
78718;SDS011;68046;53.334;9.538;2023-07-20T03:30:42;7.85;;;4.72;;
78718;SDS011;68046;53.334;9.538;2023-07-20T03:33:15;6.47;;;4.47;;
78718;SDS011;68046;53.334;9.538;2023-07-20T03:35:45;10.18;;;4.97;;
78718;SDS011;68046;53.334;9.538;2023-07-20T03:38:15;6.90;;;4.00;;
78718;SDS011;68046;53.334;9.538;2023-07-20T03:40:51;7.95;;;4.20;;
78718;SDS011;68046;53.334;9.538;2023-07-20T03:43:21;6.75;;;4.68;;
78718;SDS011;68046;53.334;9.538;2023-07-20T03:45:51;7.22;;;4.32;;
78718;SDS011;68046;53.334;9.538;2023-07-20T03:48:24;9.43;;;4.53;;
78718;SDS011;68046;53.334;9.538;2023-07-20T03:50:55;6.32;;;3.95;;
78718;SDS011;68046;53.334;9.538;2023-07-20T03:53:25;8.63;;;4.35;;
78718;SDS011;68046;53.334;9.538;2023-07-20T03:55:55;8.10;;;4.38;;
78718;SDS011;68046;53.334;9.538;2023-07-20T03:58:25;6.15;;;4.20;;
78718;SDS011;68046;53.334;9.538;2023-07-20T04:00:57;5.72;;;3.75;;
78718;SDS011;68046;53.334;9.538;2023-07-20T04:03:30;6.63;;;4.32;;
78718;SDS011;68046;53.334;9.538;2023-07-20T04:06:00;6.53;;;4.13;;
78718;SDS011;68046;53.334;9.538;2023-07-20T04:08:30;5.50;;;3.75;;
78718;SDS011;68046;53.334;9.538;2023-07-20T04:11:00;9.80;;;3.97;;
78718;SDS011;68046;53.334;9.538;2023-07-20T04:13:31;7.03;;;4.30;;
78718;SDS011;68046;53.334;9.538;2023-07-20T04:16:02;5.78;;;4.13;;
78718;SDS011;68046;53.334;9.538;2023-07-20T04:18:34;6.03;;;3.92;;
78718;SDS011;68046;53.334;9.538;2023-07-20T04:21:04;7.63;;;3.80;;
78718;SDS011;68046;53.334;9.538;2023-07-20T04:23:34;6.35;;;4.20;;
78718;SDS011;68046;53.334;9.538;2023-07-20T04:26:04;5.50;;;3.75;;
78718;SDS011;68046;53.334;9.538;2023-07-20T04:28:34;7.15;;;3.80;;
78718;SDS011;68046;53.334;9.538;2023-07-20T04:31:11;7.07;;;4.28;;
78718;SDS011;68046;53.334;9.538;2023-07-20T04:33:45;5.00;;;3.90;;
78718;SDS011;68046;53.334;9.538;2023-07-20T04:36:18;9.75;;;4.57;;
78718;SDS011;68046;53.334;9.538;2023-07-20T04:38:51;6.78;;;4.43;;
78718;SDS011;68046;53.334;9.538;2023-07-20T04:41:22;10.93;;;4.60;;
78718;SDS011;68046;53.334;9.538;2023-07-20T04:43:55;7.50;;;4.25;;
78718;SDS011;68046;53.334;9.538;2023-07-20T04:46:28;7.25;;;4.40;;
78718;SDS011;68046;53.334;9.538;2023-07-20T04:49:03;7.00;;;4.80;;
78718;SDS011;68046;53.334;9.538;2023-07-20T04:51:37;6.85;;;4.72;;
78718;SDS011;68046;53.334;9.538;2023-07-20T04:56:39;7.97;;;4.57;;
78718;SDS011;68046;53.334;9.538;2023-07-20T04:59:11;19.45;;;5.70;;
78718;SDS011;68046;53.334;9.538;2023-07-20T05:01:40;11.25;;;4.88;;
78718;SDS011;68046;53.334;9.538;2023-07-20T05:04:13;9.43;;;4.90;;
78718;SDS011;68046;53.334;9.538;2023-07-20T05:06:45;8.43;;;5.82;;
78718;SDS011;68046;53.334;9.538;2023-07-20T05:09:14;10.73;;;6.32;;
78718;SDS011;68046;53.334;9.538;2023-07-20T05:11:44;9.43;;;5.53;;
78718;SDS011;68046;53.334;9.538;2023-07-20T05:14:14;8.32;;;5.78;;
78718;SDS011;68046;53.334;9.538;2023-07-20T05:16:46;8.70;;;5.88;;
78718;SDS011;68046;53.334;9.538;2023-07-20T05:19:18;11.57;;;5.25;;
78718;SDS011;68046;53.334;9.538;2023-07-20T05:21:48;8.68;;;5.28;;
78718;SDS011;68046;53.334;9.538;2023-07-20T05:24:18;9.00;;;5.70;;
78718;SDS011;68046;53.334;9.538;2023-07-20T05:26:48;8.85;;;5.70;;
78718;SDS011;68046;53.334;9.538;2023-07-20T05:29:17;11.27;;;6.63;;
78718;SDS011;68046;53.334;9.538;2023-07-20T05:31:47;9.32;;;6.30;;
78718;SDS011;68046;53.334;9.538;2023-07-20T05:34:20;13.48;;;6.55;;
78718;SDS011;68046;53.334;9.538;2023-07-20T05:36:50;12.65;;;7.25;;
78718;SDS011;68046;53.334;9.538;2023-07-20T05:39:20;10.52;;;6.85;;
78718;SDS011;68046;53.334;9.538;2023-07-20T05:41:50;15.45;;;7.28;;
78718;SDS011;68046;53.334;9.538;2023-07-20T05:44:19;16.50;;;7.57;;
78718;SDS011;68046;53.334;9.538;2023-07-20T05:46:49;10.20;;;6.72;;
78718;SDS011;68046;53.334;9.538;2023-07-20T05:49:26;10.15;;;6.03;;
78718;SDS011;68046;53.334;9.538;2023-07-20T05:51:56;14.07;;;6.97;;
78718;SDS011;68046;53.334;9.538;2023-07-20T05:54:27;9.95;;;6.57;;
78718;SDS011;68046;53.334;9.538;2023-07-20T05:56:57;12.48;;;8.07;;
78718;SDS011;68046;53.334;9.538;2023-07-20T05:59:27;11.77;;;6.78;;
78718;SDS011;68046;53.334;9.538;2023-07-20T06:01:58;11.73;;;6.28;;
78718;SDS011;68046;53.334;9.538;2023-07-20T06:04:30;10.93;;;5.85;;
78718;SDS011;68046;53.334;9.538;2023-07-20T06:07:00;11.80;;;5.97;;
78718;SDS011;68046;53.334;9.538;2023-07-20T06:09:30;9.63;;;6.15;;
78718;SDS011;68046;53.334;9.538;2023-07-20T06:11:59;11.70;;;6.55;;
78718;SDS011;68046;53.334;9.538;2023-07-20T06:14:29;10.02;;;6.50;;
78718;SDS011;68046;53.334;9.538;2023-07-20T06:16:59;12.50;;;6.22;;
78718;SDS011;68046;53.334;9.538;2023-07-20T06:19:32;9.13;;;5.35;;
78718;SDS011;68046;53.334;9.538;2023-07-20T06:22:02;11.77;;;6.00;;
78718;SDS011;68046;53.334;9.538;2023-07-20T06:24:32;10.20;;;5.60;;
78718;SDS011;68046;53.334;9.538;2023-07-20T06:27:02;10.10;;;5.05;;
78718;SDS011;68046;53.334;9.538;2023-07-20T06:32:02;10.48;;;4.55;;
78718;SDS011;68046;53.334;9.538;2023-07-20T06:34:35;9.73;;;5.07;;
78718;SDS011;68046;53.334;9.538;2023-07-20T06:37:05;12.77;;;5.55;;
78718;SDS011;68046;53.334;9.538;2023-07-20T06:39:35;9.80;;;4.35;;
78718;SDS011;68046;53.334;9.538;2023-07-20T06:42:08;7.57;;;4.90;;
78718;SDS011;68046;53.334;9.538;2023-07-20T06:44:39;6.88;;;4.00;;
78718;SDS011;68046;53.334;9.538;2023-07-20T06:47:08;8.23;;;4.05;;
78718;SDS011;68046;53.334;9.538;2023-07-20T06:49:41;8.27;;;3.45;;
78718;SDS011;68046;53.334;9.538;2023-07-20T06:52:11;4.40;;;2.78;;
78718;SDS011;68046;53.334;9.538;2023-07-20T06:54:41;11.10;;;3.30;;
78718;SDS011;68046;53.334;9.538;2023-07-20T06:57:11;9.30;;;4.38;;
78718;SDS011;68046;53.334;9.538;2023-07-20T06:59:44;6.75;;;3.20;;
78718;SDS011;68046;53.334;9.538;2023-07-20T07:02:15;8.57;;;3.33;;
78718;SDS011;68046;53.334;9.538;2023-07-20T07:05:07;9.20;;;3.55;;
78718;SDS011;68046;53.334;9.538;2023-07-20T07:07:40;10.25;;;3.03;;
78718;SDS011;68046;53.334;9.538;2023-07-20T07:10:10;7.03;;;3.45;;
78718;SDS011;68046;53.334;9.538;2023-07-20T07:12:40;7.50;;;2.97;;
78718;SDS011;68046;53.334;9.538;2023-07-20T07:15:10;9.82;;;3.38;;
78718;SDS011;68046;53.334;9.538;2023-07-20T07:17:40;6.75;;;2.85;;
78718;SDS011;68046;53.334;9.538;2023-07-20T07:20:12;10.50;;;2.35;;
78718;SDS011;68046;53.334;9.538;2023-07-20T07:25:19;6.95;;;2.70;;
78718;SDS011;68046;53.334;9.538;2023-07-20T07:27:50;8.05;;;2.47;;
78718;SDS011;68046;53.334;9.538;2023-07-20T07:30:20;6.50;;;2.60;;
78718;SDS011;68046;53.334;9.538;2023-07-20T07:32:49;4.78;;;2.10;;
78718;SDS011;68046;53.334;9.538;2023-07-20T07:35:22;5.10;;;2.00;;
78718;SDS011;68046;53.334;9.538;2023-07-20T07:37:52;8.57;;;2.60;;
78718;SDS011;68046;53.334;9.538;2023-07-20T07:40:39;3.50;;;2.03;;
78718;SDS011;68046;53.334;9.538;2023-07-20T07:43:09;7.40;;;2.30;;
78718;SDS011;68046;53.334;9.538;2023-07-20T07:45:40;5.70;;;2.22;;
78718;SDS011;68046;53.334;9.538;2023-07-20T07:48:10;7.53;;;2.30;;
78718;SDS011;68046;53.334;9.538;2023-07-20T07:50:43;8.30;;;2.30;;
78718;SDS011;68046;53.334;9.538;2023-07-20T07:53:13;3.42;;;2.17;;
78718;SDS011;68046;53.334;9.538;2023-07-20T07:55:42;4.45;;;2.70;;
78718;SDS011;68046;53.334;9.538;2023-07-20T07:58:12;4.50;;;1.95;;
78718;SDS011;68046;53.334;9.538;2023-07-20T08:00:44;6.80;;;2.33;;
78718;SDS011;68046;53.334;9.538;2023-07-20T08:03:14;6.40;;;2.28;;
78718;SDS011;68046;53.334;9.538;2023-07-20T08:05:48;7.40;;;2.65;;
78718;SDS011;68046;53.334;9.538;2023-07-20T08:08:18;11.15;;;2.33;;
78718;SDS011;68046;53.334;9.538;2023-07-20T08:10:50;6.53;;;2.50;;
78718;SDS011;68046;53.334;9.538;2023-07-20T08:13:22;9.48;;;2.75;;
78718;SDS011;68046;53.334;9.538;2023-07-20T08:15:52;6.25;;;2.05;;
78718;SDS011;68046;53.334;9.538;2023-07-20T08:18:22;7.13;;;2.53;;
78718;SDS011;68046;53.334;9.538;2023-07-20T08:20:55;11.10;;;2.83;;
78718;SDS011;68046;53.334;9.538;2023-07-20T08:23:24;6.15;;;2.63;;
78718;SDS011;68046;53.334;9.538;2023-07-20T08:25:54;10.25;;;2.60;;
78718;SDS011;68046;53.334;9.538;2023-07-20T08:28:24;12.38;;;2.50;;
78718;SDS011;68046;53.334;9.538;2023-07-20T08:30:57;8.27;;;2.70;;
78718;SDS011;68046;53.334;9.538;2023-07-20T08:33:27;6.13;;;2.70;;
78718;SDS011;68046;53.334;9.538;2023-07-20T08:36:02;8.20;;;2.65;;
78718;SDS011;68046;53.334;9.538;2023-07-20T08:38:37;13.43;;;2.90;;
78718;SDS011;68046;53.334;9.538;2023-07-20T08:41:07;7.82;;;2.70;;
78718;SDS011;68046;53.334;9.538;2023-07-20T08:43:38;5.80;;;2.70;;
78718;SDS011;68046;53.334;9.538;2023-07-20T08:46:11;7.53;;;3.03;;
78718;SDS011;68046;53.334;9.538;2023-07-20T08:48:42;7.03;;;2.40;;
78718;SDS011;68046;53.334;9.538;2023-07-20T08:53:44;11.60;;;3.10;;
78718;SDS011;68046;53.334;9.538;2023-07-20T08:58:44;8.65;;;2.38;;
78718;SDS011;68046;53.334;9.538;2023-07-20T09:01:15;6.05;;;2.95;;
78718;SDS011;68046;53.334;9.538;2023-07-20T09:03:47;6.25;;;2.85;;
78718;SDS011;68046;53.334;9.538;2023-07-20T09:06:19;6.90;;;2.67;;
78718;SDS011;68046;53.334;9.538;2023-07-20T09:08:50;6.53;;;2.80;;
78718;SDS011;68046;53.334;9.538;2023-07-20T09:11:20;5.38;;;2.30;;
78718;SDS011;68046;53.334;9.538;2023-07-20T09:14:01;4.78;;;2.63;;
78718;SDS011;68046;53.334;9.538;2023-07-20T09:16:32;5.68;;;2.47;;
78718;SDS011;68046;53.334;9.538;2023-07-20T09:19:02;6.13;;;2.20;;
78718;SDS011;68046;53.334;9.538;2023-07-20T09:21:36;9.02;;;3.42;;
78718;SDS011;68046;53.334;9.538;2023-07-20T09:24:06;7.05;;;2.58;;
78718;SDS011;68046;53.334;9.538;2023-07-20T09:26:39;5.13;;;2.17;;
78718;SDS011;68046;53.334;9.538;2023-07-20T09:29:10;12.05;;;2.70;;
78718;SDS011;68046;53.334;9.538;2023-07-20T09:31:42;7.30;;;3.42;;
78718;SDS011;68046;53.334;9.538;2023-07-20T09:34:12;7.72;;;2.33;;
78718;SDS011;68046;53.334;9.538;2023-07-20T09:37:04;10.30;;;3.10;;
78718;SDS011;68046;53.334;9.538;2023-07-20T09:39:41;7.30;;;2.60;;
78718;SDS011;68046;53.334;9.538;2023-07-20T09:42:14;7.28;;;2.65;;
78718;SDS011;68046;53.334;9.538;2023-07-20T09:44:48;6.93;;;2.35;;
78718;SDS011;68046;53.334;9.538;2023-07-20T09:47:21;6.80;;;2.58;;
78718;SDS011;68046;53.334;9.538;2023-07-20T09:49:57;8.18;;;2.85;;
78718;SDS011;68046;53.334;9.538;2023-07-20T09:52:33;9.63;;;2.75;;
78718;SDS011;68046;53.334;9.538;2023-07-20T09:55:07;10.13;;;2.90;;
78718;SDS011;68046;53.334;9.538;2023-07-20T09:57:38;13.15;;;2.83;;
78718;SDS011;68046;53.334;9.538;2023-07-20T10:00:08;5.13;;;2.28;;
78718;SDS011;68046;53.334;9.538;2023-07-20T10:02:42;12.10;;;3.33;;
78718;SDS011;68046;53.334;9.538;2023-07-20T10:05:14;9.68;;;2.65;;
78718;SDS011;68046;53.334;9.538;2023-07-20T10:07:47;5.85;;;2.20;;
78718;SDS011;68046;53.334;9.538;2023-07-20T10:10:38;12.80;;;2.78;;
78718;SDS011;68046;53.334;9.538;2023-07-20T10:13:13;9.63;;;2.05;;
78718;SDS011;68046;53.334;9.538;2023-07-20T10:15:46;7.38;;;2.22;;
78718;SDS011;68046;53.334;9.538;2023-07-20T10:18:20;7.28;;;2.25;;
78718;SDS011;68046;53.334;9.538;2023-07-20T10:20:55;7.80;;;2.38;;
78718;SDS011;68046;53.334;9.538;2023-07-20T10:23:30;9.45;;;2.90;;
78718;SDS011;68046;53.334;9.538;2023-07-20T10:26:01;10.10;;;2.47;;
78718;SDS011;68046;53.334;9.538;2023-07-20T10:31:00;8.05;;;2.28;;
78718;SDS011;68046;53.334;9.538;2023-07-20T10:33:32;5.70;;;1.80;;
78718;SDS011;68046;53.334;9.538;2023-07-20T10:36:03;5.35;;;2.08;;
78718;SDS011;68046;53.334;9.538;2023-07-20T10:38:44;8.60;;;2.08;;
78718;SDS011;68046;53.334;9.538;2023-07-20T10:41:23;8.05;;;2.05;;
78718;SDS011;68046;53.334;9.538;2023-07-20T10:43:58;5.88;;;1.65;;
78718;SDS011;68046;53.334;9.538;2023-07-20T10:46:34;10.27;;;2.00;;
78718;SDS011;68046;53.334;9.538;2023-07-20T10:49:11;9.60;;;2.13;;
78718;SDS011;68046;53.334;9.538;2023-07-20T10:51:42;6.82;;;2.10;;
78718;SDS011;68046;53.334;9.538;2023-07-20T10:59:54;7.20;;;2.35;;
78718;SDS011;68046;53.334;9.538;2023-07-20T11:02:47;5.55;;;2.20;;
78718;SDS011;68046;53.334;9.538;2023-07-20T11:08:04;7.85;;;2.20;;
78718;SDS011;68046;53.334;9.538;2023-07-20T11:10:37;9.48;;;1.95;;
78718;SDS011;68046;53.334;9.538;2023-07-20T11:13:20;6.93;;;2.33;;
78718;SDS011;68046;53.334;9.538;2023-07-20T11:16:01;8.20;;;2.17;;
78718;SDS011;68046;53.334;9.538;2023-07-20T11:18:34;4.20;;;1.83;;
78718;SDS011;68046;53.334;9.538;2023-07-20T11:21:10;8.75;;;1.92;;
78718;SDS011;68046;53.334;9.538;2023-07-20T11:23:40;6.22;;;2.28;;
78718;SDS011;68046;53.334;9.538;2023-07-20T11:26:12;4.57;;;1.80;;
78718;SDS011;68046;53.334;9.538;2023-07-20T11:28:42;6.15;;;1.65;;
78718;SDS011;68046;53.334;9.538;2023-07-20T11:31:13;9.27;;;2.47;;
78718;SDS011;68046;53.334;9.538;2023-07-20T11:33:43;7.53;;;2.17;;
78718;SDS011;68046;53.334;9.538;2023-07-20T11:36:13;4.15;;;1.80;;
78718;SDS011;68046;53.334;9.538;2023-07-20T11:38:46;8.18;;;2.17;;
78718;SDS011;68046;53.334;9.538;2023-07-20T11:43:48;4.85;;;2.05;;
78718;SDS011;68046;53.334;9.538;2023-07-20T11:46:18;4.78;;;1.70;;
78718;SDS011;68046;53.334;9.538;2023-07-20T11:48:48;4.05;;;1.70;;
78718;SDS011;68046;53.334;9.538;2023-07-20T11:51:18;5.43;;;2.08;;
78718;SDS011;68046;53.334;9.538;2023-07-20T11:53:48;10.02;;;2.03;;
78718;SDS011;68046;53.334;9.538;2023-07-20T11:56:20;4.45;;;1.80;;
78718;SDS011;68046;53.334;9.538;2023-07-20T11:58:54;5.47;;;1.70;;
78718;SDS011;68046;53.334;9.538;2023-07-20T12:01:25;6.47;;;2.25;;
78718;SDS011;68046;53.334;9.538;2023-07-20T12:03:59;4.63;;;1.80;;
78718;SDS011;68046;53.334;9.538;2023-07-20T12:06:29;11.23;;;2.10;;
78718;SDS011;68046;53.334;9.538;2023-07-20T12:09:00;4.20;;;1.90;;
78718;SDS011;68046;53.334;9.538;2023-07-20T12:11:36;6.65;;;1.95;;
78718;SDS011;68046;53.334;9.538;2023-07-20T12:14:07;6.95;;;2.22;;
78718;SDS011;68046;53.334;9.538;2023-07-20T12:16:43;5.78;;;1.70;;
78718;SDS011;68046;53.334;9.538;2023-07-20T12:19:13;15.40;;;2.03;;
78718;SDS011;68046;53.334;9.538;2023-07-20T12:21:43;4.25;;;1.30;;
78718;SDS011;68046;53.334;9.538;2023-07-20T12:24:13;2.55;;;1.30;;
78718;SDS011;68046;53.334;9.538;2023-07-20T12:26:45;5.70;;;1.58;;
78718;SDS011;68046;53.334;9.538;2023-07-20T12:29:15;3.80;;;1.30;;
78718;SDS011;68046;53.334;9.538;2023-07-20T12:31:45;3.58;;;1.27;;
78718;SDS011;68046;53.334;9.538;2023-07-20T12:34:14;3.10;;;1.50;;
78718;SDS011;68046;53.334;9.538;2023-07-20T12:36:44;3.67;;;1.50;;
78718;SDS011;68046;53.334;9.538;2023-07-20T12:39:14;4.70;;;1.38;;
78718;SDS011;68046;53.334;9.538;2023-07-20T12:41:46;2.67;;;1.17;;
78718;SDS011;68046;53.334;9.538;2023-07-20T12:44:16;2.13;;;1.20;;
78718;SDS011;68046;53.334;9.538;2023-07-20T12:46:46;2.88;;;1.20;;
78718;SDS011;68046;53.334;9.538;2023-07-20T12:49:15;4.68;;;1.52;;
78718;SDS011;68046;53.334;9.538;2023-07-20T12:51:45;3.35;;;1.27;;
78718;SDS011;68046;53.334;9.538;2023-07-20T12:54:15;3.17;;;1.50;;
78718;SDS011;68046;53.334;9.538;2023-07-20T12:56:48;5.13;;;1.80;;
78718;SDS011;68046;53.334;9.538;2023-07-20T12:59:20;3.00;;;1.60;;
78718;SDS011;68046;53.334;9.538;2023-07-20T13:01:50;9.60;;;1.40;;
78718;SDS011;68046;53.334;9.538;2023-07-20T13:04:20;4.63;;;1.58;;
78718;SDS011;68046;53.334;9.538;2023-07-20T15:08:12;3.53;;;1.40;;
78718;SDS011;68046;53.334;9.538;2023-07-20T15:10:42;4.80;;;1.80;;
78718;SDS011;68046;53.334;9.538;2023-07-20T15:13:13;5.47;;;2.17;;
78718;SDS011;68046;53.334;9.538;2023-07-20T15:15:43;4.72;;;1.73;;
78718;SDS011;68046;53.334;9.538;2023-07-20T15:18:12;6.00;;;1.40;;
78718;SDS011;68046;53.334;9.538;2023-07-20T15:20:42;4.22;;;1.83;;
78718;SDS011;68046;53.334;9.538;2023-07-20T15:23:16;8.82;;;1.80;;
78718;SDS011;68046;53.334;9.538;2023-07-20T15:25:46;5.57;;;1.60;;
78718;SDS011;68046;53.334;9.538;2023-07-20T15:30:46;5.35;;;1.63;;
78718;SDS011;68046;53.334;9.538;2023-07-20T15:33:17;4.97;;;1.60;;
78718;SDS011;68046;53.334;9.538;2023-07-20T15:35:48;8.05;;;1.50;;
78718;SDS011;68046;53.334;9.538;2023-07-20T15:38:21;3.10;;;1.45;;
78718;SDS011;68046;53.334;9.538;2023-07-20T15:40:50;6.88;;;1.77;;
78718;SDS011;68046;53.334;9.538;2023-07-20T15:43:21;5.10;;;1.52;;
78718;SDS011;68046;53.334;9.538;2023-07-20T15:45:51;7.25;;;1.98;;
78718;SDS011;68046;53.334;9.538;2023-07-20T15:48:34;3.45;;;1.60;;
78718;SDS011;68046;53.334;9.538;2023-07-20T15:51:08;2.63;;;1.50;;
78718;SDS011;68046;53.334;9.538;2023-07-20T15:53:40;3.03;;;1.40;;
78718;SDS011;68046;53.334;9.538;2023-07-20T15:56:10;5.70;;;1.45;;
78718;SDS011;68046;53.334;9.538;2023-07-20T15:58:40;11.05;;;1.92;;
78718;SDS011;68046;53.334;9.538;2023-07-20T16:01:10;6.30;;;1.80;;
78718;SDS011;68046;53.334;9.538;2023-07-20T16:03:40;6.13;;;2.15;;
78718;SDS011;68046;53.334;9.538;2023-07-20T16:06:10;7.20;;;2.00;;
78718;SDS011;68046;53.334;9.538;2023-07-20T16:08:42;8.75;;;1.77;;
78718;SDS011;68046;53.334;9.538;2023-07-20T16:11:12;5.15;;;1.92;;
78718;SDS011;68046;53.334;9.538;2023-07-20T16:13:42;9.80;;;2.38;;
78718;SDS011;68046;53.334;9.538;2023-07-20T16:16:12;4.90;;;1.67;;
78718;SDS011;68046;53.334;9.538;2023-07-20T16:18:42;3.97;;;1.85;;
78718;SDS011;68046;53.334;9.538;2023-07-20T16:21:12;4.57;;;1.48;;
78718;SDS011;68046;53.334;9.538;2023-07-20T16:23:44;3.05;;;1.40;;
78718;SDS011;68046;53.334;9.538;2023-07-20T16:26:14;4.95;;;1.55;;
78718;SDS011;68046;53.334;9.538;2023-07-20T16:28:44;7.18;;;1.92;;
78718;SDS011;68046;53.334;9.538;2023-07-20T16:31:14;5.13;;;1.52;;
78718;SDS011;68046;53.334;9.538;2023-07-20T16:33:45;4.50;;;2.03;;
78718;SDS011;68046;53.334;9.538;2023-07-20T16:36:15;8.07;;;1.60;;
78718;SDS011;68046;53.334;9.538;2023-07-20T16:41:37;3.13;;;1.35;;
78718;SDS011;68046;53.334;9.538;2023-07-20T16:44:10;2.28;;;1.15;;
78718;SDS011;68046;53.334;9.538;2023-07-20T16:46:40;3.50;;;1.30;;
78718;SDS011;68046;53.334;9.538;2023-07-20T16:49:13;2.47;;;1.40;;
78718;SDS011;68046;53.334;9.538;2023-07-20T16:51:43;3.17;;;1.50;;
78718;SDS011;68046;53.334;9.538;2023-07-20T16:54:16;4.50;;;1.40;;
78718;SDS011;68046;53.334;9.538;2023-07-20T16:56:46;4.18;;;1.60;;
78718;SDS011;68046;53.334;9.538;2023-07-20T16:59:15;7.55;;;1.55;;
78718;SDS011;68046;53.334;9.538;2023-07-20T17:01:46;4.20;;;1.45;;
78718;SDS011;68046;53.334;9.538;2023-07-20T17:04:19;4.10;;;1.67;;
78718;SDS011;68046;53.334;9.538;2023-07-20T17:06:49;2.38;;;1.38;;
78718;SDS011;68046;53.334;9.538;2023-07-20T17:11:52;2.55;;;1.63;;
78718;SDS011;68046;53.334;9.538;2023-07-20T17:14:22;2.70;;;1.33;;
78718;SDS011;68046;53.334;9.538;2023-07-20T17:16:53;2.58;;;1.27;;
78718;SDS011;68046;53.334;9.538;2023-07-20T17:19:23;3.30;;;1.55;;
78718;SDS011;68046;53.334;9.538;2023-07-20T17:21:56;9.00;;;1.40;;
78718;SDS011;68046;53.334;9.538;2023-07-20T17:24:29;3.28;;;1.60;;
78718;SDS011;68046;53.334;9.538;2023-07-20T17:27:02;4.30;;;1.40;;
78718;SDS011;68046;53.334;9.538;2023-07-20T17:29:36;10.63;;;1.60;;
78718;SDS011;68046;53.334;9.538;2023-07-20T17:32:06;6.22;;;1.58;;
78718;SDS011;68046;53.334;9.538;2023-07-20T17:34:37;2.50;;;1.30;;
78718;SDS011;68046;53.334;9.538;2023-07-20T17:37:06;2.85;;;1.50;;
78718;SDS011;68046;53.334;9.538;2023-07-20T17:39:42;3.08;;;1.20;;
78718;SDS011;68046;53.334;9.538;2023-07-20T17:42:17;3.80;;;1.38;;
78718;SDS011;68046;53.334;9.538;2023-07-20T17:44:49;4.40;;;1.90;;
78718;SDS011;68046;53.334;9.538;2023-07-20T17:47:19;4.47;;;1.48;;
78718;SDS011;68046;53.334;9.538;2023-07-20T17:49:49;3.00;;;1.50;;
78718;SDS011;68046;53.334;9.538;2023-07-20T17:52:19;4.88;;;1.60;;
78718;SDS011;68046;53.334;9.538;2023-07-20T17:54:53;6.65;;;1.70;;
78718;SDS011;68046;53.334;9.538;2023-07-20T17:57:24;5.35;;;1.70;;
78718;SDS011;68046;53.334;9.538;2023-07-20T17:59:53;4.82;;;1.60;;
78718;SDS011;68046;53.334;9.538;2023-07-20T18:02:30;5.63;;;1.52;;
78718;SDS011;68046;53.334;9.538;2023-07-20T18:05:00;6.25;;;1.67;;
78718;SDS011;68046;53.334;9.538;2023-07-20T18:07:32;3.50;;;1.50;;
78718;SDS011;68046;53.334;9.538;2023-07-20T18:10:05;7.63;;;1.60;;